createdAt,value
2022-09-07T00:01:07.888Z,3.00
2022-09-07T00:03:34.436Z,2.00
2022-09-07T00:06:00.975Z,3.00
2022-09-07T00:08:27.489Z,3.33
2022-09-07T00:10:54.127Z,2.33
2022-09-07T00:13:20.561Z,2.00
2022-09-07T00:15:47.007Z,2.00
2022-09-07T00:18:13.488Z,3.00
2022-09-07T00:20:39.944Z,3.00
2022-09-07T00:23:06.457Z,3.00
2022-09-07T00:25:32.887Z,2.67
2022-09-07T00:27:59.359Z,3.00
2022-09-07T00:30:25.810Z,2.33
2022-09-07T00:32:52.239Z,1.67
2022-09-07T00:35:18.696Z,4.00
2022-09-07T00:37:45.132Z,3.67
2022-09-07T00:40:11.674Z,2.00
2022-09-07T00:42:38.144Z,3.00
2022-09-07T00:45:04.636Z,3.00
2022-09-07T00:47:31.068Z,3.00
2022-09-07T00:49:57.543Z,2.67
2022-09-07T00:52:24.001Z,3.00
2022-09-07T00:54:50.455Z,3.00
2022-09-07T00:57:16.911Z,2.00
2022-09-07T00:59:43.331Z,2.67
2022-09-07T01:02:09.956Z,3.67
2022-09-07T01:04:36.496Z,3.00
2022-09-07T01:07:02.947Z,4.00
2022-09-07T01:09:29.386Z,3.67
2022-09-07T01:11:55.819Z,3.00
2022-09-07T01:14:22.253Z,4.00
2022-09-07T01:16:48.705Z,3.00
2022-09-07T01:19:16.015Z,3.00
2022-09-07T01:21:42.498Z,3.33
2022-09-07T01:24:08.959Z,3.00
2022-09-07T01:26:35.378Z,4.67
2022-09-07T01:29:01.854Z,3.00
2022-09-07T01:31:28.383Z,3.00
2022-09-07T01:33:54.927Z,3.33
2022-09-07T01:36:21.387Z,3.00
2022-09-07T01:38:47.846Z,4.33
2022-09-07T01:41:15.152Z,4.00
2022-09-07T01:43:41.653Z,5.00
2022-09-07T01:46:08.117Z,4.33
2022-09-07T01:48:34.607Z,4.00
2022-09-07T01:51:01.066Z,4.33
2022-09-07T01:53:27.500Z,4.00
2022-09-07T01:55:53.956Z,3.67
2022-09-07T01:58:20.400Z,5.00
2022-09-07T02:00:46.868Z,4.00
2022-09-07T02:03:13.296Z,5.00
2022-09-07T02:05:39.785Z,4.67
2022-09-07T02:08:06.250Z,5.00
2022-09-07T02:10:32.687Z,5.00
2022-09-07T02:12:59.153Z,4.67
2022-09-07T02:15:25.608Z,4.67
2022-09-07T02:17:52.089Z,4.00
2022-09-07T02:20:18.532Z,4.00
2022-09-07T02:22:44.968Z,5.00
2022-09-07T02:25:11.416Z,4.33
2022-09-07T02:27:37.851Z,4.00
2022-09-07T02:30:04.311Z,4.00
2022-09-07T02:32:30.744Z,1.33
2022-09-07T02:34:57.185Z,4.00
2022-09-07T02:37:23.699Z,4.67
2022-09-07T02:39:50.214Z,5.00
2022-09-07T02:42:17.566Z,5.00
2022-09-07T02:44:44.012Z,5.00
2022-09-07T02:47:10.407Z,5.00
2022-09-07T02:49:36.793Z,4.67
2022-09-07T02:52:03.164Z,5.00
2022-09-07T02:54:29.557Z,5.00
2022-09-07T02:56:55.923Z,5.00
2022-09-07T02:59:22.365Z,4.00
2022-09-07T03:01:48.809Z,4.00
2022-09-07T03:04:15.252Z,4.67
2022-09-07T03:06:41.640Z,4.33
2022-09-07T03:09:08.889Z,5.50
2022-09-07T03:11:35.284Z,4.00
2022-09-07T03:14:01.639Z,5.00
2022-09-07T03:16:28.014Z,5.67
2022-09-07T03:18:54.404Z,5.67
2022-09-07T03:21:20.854Z,5.67
2022-09-07T03:23:51.592Z,6.00
2022-09-07T03:26:18.275Z,5.00
2022-09-07T03:28:44.656Z,5.00
2022-09-07T03:31:11.047Z,4.67
2022-09-07T03:33:37.491Z,5.00
2022-09-07T03:36:03.845Z,4.67
2022-09-07T03:38:30.477Z,5.00
2022-09-07T03:40:57.015Z,5.00
2022-09-07T03:43:23.376Z,5.00
2022-09-07T03:45:49.771Z,5.00
2022-09-07T03:48:16.162Z,5.33
2022-09-07T03:50:42.537Z,6.00
2022-09-07T03:53:09.806Z,5.25
2022-09-07T03:55:36.216Z,5.00
2022-09-07T03:58:02.606Z,5.00
2022-09-07T04:00:29.001Z,5.67
2022-09-07T04:02:58.244Z,5.00
2022-09-07T04:05:24.650Z,6.00
2022-09-07T04:07:51.027Z,6.00
2022-09-07T04:10:17.523Z,6.00
2022-09-07T04:12:44.788Z,7.25
2022-09-07T04:15:12.039Z,5.75
2022-09-07T04:17:38.419Z,6.00
2022-09-07T04:20:04.865Z,6.00
2022-09-07T04:22:31.324Z,6.00
2022-09-07T04:24:57.733Z,6.00
2022-09-07T04:27:24.146Z,7.00
2022-09-07T04:29:51.436Z,8.00
2022-09-07T04:32:17.847Z,6.00
2022-09-07T04:34:44.289Z,7.67
2022-09-07T04:37:12.549Z,6.00
2022-09-07T04:39:39.008Z,6.00
2022-09-07T04:42:05.487Z,6.00
2022-09-07T04:44:31.870Z,4.67
2022-09-07T04:46:58.269Z,6.00
2022-09-07T04:49:26.605Z,9.20
2022-09-07T04:51:53.041Z,11.00
2022-09-07T04:54:19.545Z,9.00
2022-09-07T04:56:46.047Z,9.00
2022-09-07T04:59:12.420Z,7.50
2022-09-07T05:01:40.919Z,8.40
2022-09-07T05:04:10.132Z,7.00
2022-09-07T05:06:36.584Z,8.50
2022-09-07T05:09:03.885Z,10.00
2022-09-07T05:11:30.434Z,11.00
2022-09-07T05:13:57.721Z,10.33
2022-09-07T05:16:24.339Z,9.00
2022-09-07T05:18:50.826Z,9.50
2022-09-07T05:21:17.284Z,7.00
2022-09-07T05:23:45.597Z,7.20
2022-09-07T05:26:12.894Z,9.00
2022-09-07T05:28:39.397Z,10.00
2022-09-07T05:31:21.187Z,9.00
2022-09-07T05:36:34.097Z,9.50
2022-09-07T05:39:01.554Z,10.67
2022-09-07T05:41:28.074Z,10.50
2022-09-07T05:46:41.011Z,10.50
2022-09-07T05:49:10.578Z,9.00
2022-09-07T05:51:36.928Z,5.67
2022-09-07T05:54:03.499Z,7.00
2022-09-07T05:56:30.145Z,8.50
2022-09-07T05:58:56.877Z,8.00
2022-09-07T06:01:23.662Z,9.00
2022-09-07T06:03:50.109Z,8.00
2022-09-07T06:06:16.640Z,9.50
2022-09-07T06:08:45.821Z,7.67
2022-09-07T06:11:15.019Z,8.33
2022-09-07T06:13:41.479Z,8.50
2022-09-07T06:16:09.856Z,10.00
2022-09-07T06:18:36.357Z,9.00
2022-09-07T06:21:05.576Z,9.00
2022-09-07T06:23:32.241Z,7.50
2022-09-07T06:26:01.470Z,9.00
2022-09-07T06:28:30.747Z,8.67
2022-09-07T06:30:57.189Z,9.00
2022-09-07T06:33:23.635Z,9.50
2022-09-07T06:35:52.842Z,8.67
2022-09-07T06:38:20.102Z,4.00
2022-09-07T06:40:46.605Z,10.00
2022-09-07T06:43:15.809Z,7.33
2022-09-07T06:45:44.150Z,8.00
2022-09-07T06:48:10.551Z,5.50
2022-09-07T06:50:36.938Z,8.00
2022-09-07T06:55:50.665Z,8.00
2022-09-07T06:58:17.070Z,6.00
2022-09-07T07:00:45.404Z,7.20
2022-09-07T07:03:12.902Z,5.75
2022-09-07T07:05:39.384Z,6.00
2022-09-07T07:08:05.878Z,16.00
2022-09-07T07:10:32.263Z,7.00
2022-09-07T07:12:58.877Z,9.00
2022-09-07T07:15:25.374Z,8.50
2022-09-07T07:17:58.374Z,7.50
2022-09-07T07:20:26.959Z,6.00
2022-09-07T07:22:53.342Z,6.00
2022-09-07T07:25:20.589Z,7.00
2022-09-07T07:27:46.947Z,5.67
2022-09-07T07:30:13.353Z,5.00
2022-09-07T07:32:39.785Z,5.33
2022-09-07T07:35:06.138Z,6.00
2022-09-07T07:37:32.454Z,5.00
2022-09-07T07:42:40.476Z,2.00
2022-09-07T07:47:53.210Z,4.00
2022-09-07T07:50:35.080Z,4.00
2022-09-07T07:55:47.799Z,4.00
2022-09-07T07:58:15.038Z,3.00
2022-09-07T08:00:54.167Z,3.00
2022-09-07T08:03:21.647Z,2.00
2022-09-07T08:05:47.976Z,2.00
2022-09-07T08:08:14.288Z,2.00
2022-09-07T08:10:40.602Z,2.00
2022-09-07T08:13:06.968Z,2.67
2022-09-07T08:15:33.298Z,3.00
2022-09-07T08:17:59.622Z,3.00
2022-09-07T08:20:25.973Z,3.00
2022-09-07T08:22:52.367Z,2.00
2022-09-07T08:25:18.688Z,2.33
2022-09-07T08:27:45.001Z,3.00
2022-09-07T08:30:11.362Z,2.00
2022-09-07T08:32:37.707Z,2.00
2022-09-07T08:35:04.042Z,2.00
2022-09-07T08:37:30.386Z,1.67
2022-09-07T08:39:56.804Z,2.00
2022-09-07T08:42:23.145Z,2.00
2022-09-07T08:44:49.463Z,1.33
2022-09-07T08:47:15.784Z,2.00
2022-09-07T08:49:42.101Z,1.33
2022-09-07T08:52:08.446Z,1.67
2022-09-07T08:54:34.751Z,1.00
2022-09-07T08:59:50.143Z,1.00
2022-09-07T09:02:40.226Z,1.00
2022-09-07T09:05:21.207Z,1.00
2022-09-07T09:07:47.676Z,1.00
2022-09-07T09:10:13.986Z,1.00
2022-09-07T09:12:40.280Z,1.00
2022-09-07T09:15:06.601Z,1.00
2022-09-07T09:17:35.716Z,0.67
2022-09-07T09:20:04.893Z,0.67
2022-09-07T09:22:33.975Z,1.00
2022-09-07T09:25:00.263Z,1.00
2022-09-07T09:27:26.554Z,1.00
2022-09-07T09:29:52.842Z,1.00
2022-09-07T09:32:19.163Z,2.00
2022-09-07T09:34:45.459Z,1.00
2022-09-07T09:37:11.807Z,2.00
2022-09-07T09:39:38.203Z,1.00
2022-09-07T09:42:07.441Z,1.00
2022-09-07T09:44:36.544Z,1.00
2022-09-07T09:49:54.734Z,1.00
2022-09-07T09:52:33.807Z,0.50
2022-09-07T09:55:33.255Z,0.83
2022-09-07T10:06:19.102Z,0.00
2022-09-07T10:08:48.238Z,1.00
2022-09-07T10:11:14.547Z,1.00
2022-09-07T10:13:43.637Z,0.67
2022-09-07T10:16:10.067Z,1.00
2022-09-07T10:18:39.255Z,1.00
2022-09-07T10:21:05.575Z,1.00
2022-09-07T10:23:34.668Z,0.00
2022-09-07T10:26:03.785Z,1.00
2022-09-07T10:31:19.352Z,1.00
2022-09-07T10:36:37.625Z,0.00
2022-09-07T10:39:03.944Z,0.33
2022-09-07T10:41:33.040Z,0.17
2022-09-07T10:44:02.832Z,1.00
2022-09-07T10:49:21.119Z,1.00
2022-09-07T10:51:50.247Z,1.00
2022-09-07T10:54:32.228Z,0.00
2022-09-07T10:57:01.669Z,1.00
2022-09-07T11:00:07.531Z,0.00
2022-09-07T11:02:17.148Z,1.00
2022-09-07T11:04:46.238Z,1.00
2022-09-07T11:07:15.495Z,1.00
2022-09-07T11:09:44.951Z,0.33
2022-09-07T11:12:14.059Z,1.00
2022-09-07T11:14:43.197Z,0.67
2022-09-07T11:17:09.530Z,1.00
2022-09-07T11:19:36.969Z,1.00
2022-09-07T11:22:06.720Z,1.00
2022-09-07T11:24:33.004Z,1.00
2022-09-07T11:26:59.318Z,1.67
2022-09-07T11:29:32.685Z,1.00
2022-09-07T11:32:01.910Z,1.00
2022-09-07T11:34:30.996Z,0.67
2022-09-07T11:36:57.321Z,2.00
2022-09-07T11:39:23.682Z,1.00
2022-09-07T11:41:49.974Z,0.00
2022-09-07T11:44:16.331Z,1.00
2022-09-07T11:46:45.544Z,1.00
2022-09-07T11:49:11.946Z,1.00
2022-09-07T11:51:38.273Z,1.67
2022-09-07T11:54:04.697Z,2.00
2022-09-07T11:56:36.207Z,2.00
2022-09-07T11:59:02.860Z,1.00
2022-09-07T12:01:29.204Z,1.67
2022-09-07T12:03:55.646Z,1.00
2022-09-07T12:06:24.903Z,0.17
2022-09-07T12:08:51.192Z,1.00
2022-09-07T12:11:22.607Z,1.00
2022-09-07T12:13:49.588Z,1.00
2022-09-07T12:16:15.970Z,0.00
2022-09-07T12:18:42.294Z,0.00
2022-09-07T12:21:08.663Z,1.00
2022-09-07T12:23:37.840Z,0.83
2022-09-07T12:26:04.178Z,2.00
2022-09-07T12:28:33.394Z,1.00
2022-09-07T12:31:02.620Z,1.00
2022-09-07T12:33:28.991Z,1.00
2022-09-07T12:35:55.291Z,0.67
2022-09-07T12:38:21.590Z,1.00
2022-09-07T12:40:50.763Z,1.00
2022-09-07T12:43:17.066Z,1.00
2022-09-07T12:45:46.291Z,1.00
2022-09-07T12:48:12.677Z,1.00
2022-09-07T12:50:40.226Z,1.33
2022-09-07T12:53:06.863Z,1.00
2022-09-07T12:56:15.610Z,1.00
2022-09-07T12:58:25.058Z,1.17
2022-09-07T13:00:51.351Z,1.00
2022-09-07T13:06:03.967Z,1.00
2022-09-07T13:08:30.306Z,1.00
2022-09-07T13:10:56.622Z,1.00
2022-09-07T13:16:12.103Z,1.00
2022-09-07T13:18:41.269Z,1.50
2022-09-07T13:21:10.373Z,0.33
2022-09-07T13:23:37.681Z,1.33
2022-09-07T13:26:07.064Z,0.17
2022-09-07T13:28:36.179Z,1.00
2022-09-07T13:31:05.439Z,0.83
2022-09-07T13:33:31.953Z,1.00
2022-09-07T13:36:01.224Z,0.67
2022-09-07T13:38:30.338Z,1.00
2022-09-07T13:40:59.425Z,0.33
2022-09-07T13:43:28.581Z,0.83
2022-09-07T13:45:55.023Z,1.00
2022-09-07T13:48:24.173Z,1.00
2022-09-07T13:50:53.264Z,0.67
2022-09-07T13:53:19.590Z,1.00
2022-09-07T13:55:48.724Z,0.33
2022-09-07T13:58:15.110Z,1.00
2022-09-07T14:00:44.201Z,1.00
2022-09-07T14:03:13.310Z,0.00
2022-09-07T14:05:42.405Z,1.00
2022-09-07T14:08:08.702Z,0.00
2022-09-07T14:10:35.018Z,1.00
2022-09-07T14:13:01.341Z,0.33
2022-09-07T14:15:30.423Z,1.00
2022-09-07T14:17:59.498Z,1.00
2022-09-07T14:20:25.799Z,1.00
2022-09-07T14:22:54.928Z,1.67
2022-09-07T14:25:24.088Z,1.00
2022-09-07T14:27:53.195Z,1.00
2022-09-07T14:30:22.274Z,0.00
2022-09-07T14:32:48.621Z,1.00
2022-09-07T14:35:14.913Z,1.00
2022-09-07T14:37:44.031Z,0.83
2022-09-07T14:40:10.349Z,1.00
2022-09-07T14:42:39.524Z,1.00
2022-09-07T14:45:06.636Z,1.00
2022-09-07T14:47:35.832Z,1.00
2022-09-07T14:50:02.137Z,1.00
2022-09-07T14:52:28.469Z,1.00
2022-09-07T14:54:54.795Z,1.00
2022-09-07T14:57:21.120Z,3.00
2022-09-07T14:59:47.460Z,3.00
2022-09-07T15:02:13.807Z,2.00
2022-09-07T15:04:40.275Z,1.00
2022-09-07T15:07:06.609Z,1.67
2022-09-07T15:09:32.990Z,2.33
2022-09-07T15:11:59.299Z,2.00
2022-09-07T15:14:25.611Z,1.00
2022-09-07T15:17:42.594Z,2.00
2022-09-07T15:19:41.071Z,1.33
2022-09-07T15:22:07.403Z,0.33
2022-09-07T15:24:33.740Z,2.00
2022-09-07T15:27:03.371Z,1.00
2022-09-07T15:29:30.437Z,0.67
2022-09-07T15:32:04.322Z,1.33
2022-09-07T15:34:31.527Z,1.00
2022-09-07T15:37:01.292Z,1.00
2022-09-07T15:39:30.701Z,0.83
2022-09-07T15:41:57.701Z,1.00
2022-09-07T15:44:28.450Z,1.00
2022-09-07T15:49:50.073Z,1.67
2022-09-07T15:52:17.624Z,2.00
2022-09-07T15:54:43.993Z,1.00
2022-09-07T15:59:56.803Z,1.33
2022-09-07T16:05:09.526Z,1.00
2022-09-07T16:10:25.086Z,1.00
2022-09-07T16:15:37.869Z,1.33
2022-09-07T16:18:04.445Z,1.00
2022-09-07T16:20:32.226Z,1.00
2022-09-07T16:23:15.148Z,1.00
2022-09-07T16:25:42.063Z,5.00
2022-09-07T16:28:09.525Z,4.00
2022-09-07T16:30:35.872Z,6.00
2022-09-07T16:33:03.111Z,8.00
2022-09-07T16:35:29.533Z,4.00
2022-09-07T16:40:42.157Z,3.00
2022-09-07T16:43:08.856Z,2.00
2022-09-07T16:48:22.642Z,5.00
2022-09-07T16:50:49.006Z,4.00
2022-09-07T16:53:15.313Z,2.00
2022-09-07T16:55:41.634Z,2.33
2022-09-07T17:00:54.303Z,2.00
2022-09-07T17:03:20.656Z,2.00
2022-09-07T17:05:47.154Z,2.00
2022-09-07T17:08:13.536Z,2.00
2022-09-07T17:10:39.868Z,1.00
2022-09-07T17:13:09.292Z,3.00
2022-09-07T17:15:35.912Z,2.33
2022-09-07T17:18:02.213Z,3.00
2022-09-07T17:20:28.551Z,3.00
2022-09-07T17:22:54.880Z,2.00
2022-09-07T17:25:21.213Z,3.00
2022-09-07T17:27:47.497Z,3.00
2022-09-07T17:30:14.680Z,2.00
2022-09-07T17:32:41.029Z,2.33
2022-09-07T17:35:07.422Z,3.00
2022-09-07T17:37:34.660Z,3.00
2022-09-07T17:40:03.416Z,2.67
2022-09-07T17:45:17.889Z,4.00
2022-09-07T17:47:44.214Z,3.00
2022-09-07T17:50:10.514Z,4.00
2022-09-07T17:52:40.310Z,3.33
2022-09-07T17:55:07.563Z,3.00
2022-09-07T17:57:33.884Z,3.33
2022-09-07T18:00:15.589Z,2.33
2022-09-07T18:02:42.109Z,4.33
2022-09-07T18:05:09.355Z,3.00
2022-09-07T18:07:35.701Z,5.00
2022-09-07T18:10:02.050Z,4.00
2022-09-07T18:12:28.395Z,3.00
2022-09-07T18:14:54.738Z,4.00
2022-09-07T18:17:21.078Z,4.00
2022-09-07T18:19:47.444Z,4.67
2022-09-07T18:22:15.212Z,4.00
2022-09-07T18:24:41.689Z,4.00
2022-09-07T18:27:08.039Z,4.67
2022-09-07T18:29:34.741Z,4.00
2022-09-07T18:32:01.308Z,3.33
2022-09-07T18:34:27.805Z,3.67
2022-09-07T18:36:55.169Z,3.33
2022-09-07T18:39:21.727Z,4.00
2022-09-07T18:41:48.130Z,3.00
2022-09-07T18:47:01.002Z,4.00
2022-09-07T18:49:27.462Z,3.00
2022-09-07T18:54:40.437Z,1.67
2022-09-07T18:57:07.096Z,4.00
2022-09-07T18:59:33.600Z,3.33
2022-09-07T19:02:03.978Z,4.00
2022-09-07T19:07:17.299Z,3.33
2022-09-07T19:09:43.635Z,4.00
2022-09-07T19:12:10.159Z,4.00
2022-09-07T19:14:36.642Z,4.00
2022-09-07T19:17:03.017Z,5.00
2022-09-07T19:19:29.368Z,4.33
2022-09-07T19:21:55.691Z,4.00
2022-09-07T19:24:22.902Z,6.00
2022-09-07T19:26:49.223Z,5.00
2022-09-07T19:29:15.578Z,5.33
2022-09-07T19:31:42.052Z,5.00
2022-09-07T19:34:09.313Z,4.00
2022-09-07T19:36:35.731Z,5.00
2022-09-07T19:41:46.024Z,5.00
2022-09-07T19:44:12.397Z,5.00
2022-09-07T19:46:38.788Z,5.00
2022-09-07T19:49:05.199Z,5.00
2022-09-07T19:51:36.646Z,6.00
2022-09-07T19:56:47.092Z,4.33
2022-09-07T19:59:13.435Z,4.00
2022-09-07T20:01:39.775Z,4.00
2022-09-07T20:04:06.234Z,5.00
2022-09-07T20:06:32.670Z,4.00
2022-09-07T20:11:52.821Z,5.00
2022-09-07T20:14:19.240Z,6.00
2022-09-07T20:16:45.603Z,5.00
2022-09-07T20:19:11.981Z,4.67
2022-09-07T20:21:38.327Z,5.00
2022-09-07T20:26:48.556Z,5.00
2022-09-07T20:29:27.235Z,5.00
2022-09-07T20:31:54.518Z,5.00
2022-09-07T20:34:20.876Z,5.00
2022-09-07T20:36:47.192Z,5.00
2022-09-07T20:42:09.364Z,4.00
2022-09-07T20:44:35.712Z,4.33
2022-09-07T20:47:02.130Z,4.00
2022-09-07T20:49:28.522Z,4.33
2022-09-07T20:51:54.857Z,4.00
2022-09-07T20:57:05.171Z,4.00
2022-09-07T20:59:31.597Z,4.00
2022-09-07T21:01:57.955Z,4.00
2022-09-07T21:04:25.183Z,4.75
2022-09-07T21:06:51.538Z,4.00
2022-09-07T21:12:01.808Z,4.00
2022-09-07T21:14:28.111Z,5.00
2022-09-07T21:16:54.513Z,4.00
2022-09-07T21:19:20.857Z,3.00
2022-09-07T21:21:47.175Z,4.00
2022-09-07T21:27:07.618Z,3.00
2022-09-07T21:29:34.036Z,4.00
2022-09-07T21:32:00.367Z,4.00
2022-09-07T21:34:26.676Z,4.00
2022-09-07T21:36:53.008Z,4.00
2022-09-07T21:42:03.246Z,4.00
2022-09-07T21:44:29.597Z,4.00
2022-09-07T21:46:56.060Z,3.00
2022-09-07T21:49:22.472Z,4.00
2022-09-07T21:51:48.786Z,4.00
2022-09-07T21:57:11.010Z,4.00
2022-09-07T21:59:37.423Z,4.00
2022-09-07T22:02:03.821Z,3.00
2022-09-07T22:04:30.270Z,3.33
2022-09-07T22:06:56.587Z,5.00
2022-09-07T22:12:16.679Z,5.00
2022-09-07T22:14:43.064Z,3.00
2022-09-07T22:17:10.266Z,4.00
2022-09-07T22:19:36.581Z,5.00
2022-09-07T22:22:02.920Z,4.00
2022-09-07T22:27:13.397Z,3.00
2022-09-07T22:29:39.718Z,3.00
2022-09-07T22:32:06.115Z,3.67
2022-09-07T22:34:32.449Z,4.33
2022-09-07T22:36:58.787Z,3.00
2022-09-07T22:42:19.757Z,3.00
2022-09-07T22:44:46.103Z,4.33
2022-09-07T22:47:12.427Z,5.00
2022-09-07T22:49:38.771Z,4.00
2022-09-07T22:52:05.127Z,4.00
2022-09-07T22:57:25.425Z,4.00
2022-09-07T22:59:51.790Z,4.00
2022-09-07T23:02:18.132Z,6.00
2022-09-07T23:04:44.586Z,5.00
2022-09-07T23:07:11.882Z,4.00
2022-09-07T23:12:22.065Z,4.00
2022-09-07T23:14:48.384Z,4.67
2022-09-07T23:17:14.735Z,4.33
2022-09-07T23:19:41.059Z,3.67
2022-09-07T23:22:07.435Z,3.00
2022-09-07T23:27:27.750Z,4.00
2022-09-07T23:29:54.080Z,4.00
2022-09-07T23:32:21.275Z,4.00
2022-09-07T23:34:47.707Z,3.00
2022-09-07T23:37:14.916Z,3.50
2022-09-07T23:42:24.995Z,4.00
2022-09-07T23:44:51.341Z,4.00
2022-09-07T23:47:17.666Z,4.00
2022-09-07T23:49:43.987Z,4.00
2022-09-07T23:52:11.194Z,4.00
2022-09-07T23:57:31.192Z,4.00
2022-09-07T23:59:57.590Z,4.00
